createdAt,value
2023-01-30T00:00:09.803Z,10.10
2023-01-30T00:02:58.625Z,10.10
2023-01-30T00:05:27.868Z,10.10
2023-01-30T00:07:56.466Z,10.10
2023-01-30T00:10:26.154Z,9.80
2023-01-30T00:12:54.937Z,9.40
2023-01-30T00:15:23.659Z,9.90
2023-01-30T00:17:52.789Z,9.80
2023-01-30T00:20:21.637Z,9.20
2023-01-30T00:23:00.567Z,9.50
2023-01-30T00:25:31.971Z,9.10
2023-01-30T00:28:02.087Z,10.80
2023-01-30T00:30:31.386Z,9.20
2023-01-30T00:33:00.492Z,13.80
2023-01-30T00:35:29.307Z,12.40
2023-01-30T00:37:59.114Z,9.20
2023-01-30T00:40:29.659Z,9.80
2023-01-30T00:43:17.178Z,10.00
2023-01-30T00:46:06.006Z,10.80
2023-01-30T00:48:34.753Z,17.50
2023-01-30T00:51:04.251Z,26.70
2023-01-30T00:53:33.142Z,16.80
2023-01-30T00:56:02.485Z,17.70
2023-01-30T00:58:31.970Z,11.60
2023-01-30T01:01:00.919Z,9.90
2023-01-30T01:03:29.896Z,10.70
2023-01-30T01:05:59.044Z,9.80
2023-01-30T01:08:27.916Z,11.30
2023-01-30T01:10:57.036Z,11.20
2023-01-30T01:13:25.965Z,10.70
2023-01-30T01:15:54.738Z,10.50
2023-01-30T01:18:23.268Z,10.70
2023-01-30T01:20:52.017Z,11.20
2023-01-30T01:23:21.710Z,11.80
2023-01-30T01:25:50.631Z,10.50
2023-01-30T01:28:22.330Z,11.10
2023-01-30T01:30:51.621Z,11.80
2023-01-30T01:33:20.481Z,11.00
2023-01-30T01:35:49.720Z,11.10
2023-01-30T01:38:18.490Z,11.90
2023-01-30T01:41:02.545Z,13.60
2023-01-30T01:43:35.301Z,12.30
2023-01-30T01:46:13.969Z,12.20
2023-01-30T01:48:48.190Z,13.70
2023-01-30T01:51:23.314Z,15.40
2023-01-30T01:53:59.940Z,13.50
2023-01-30T01:56:30.821Z,14.70
2023-01-30T01:59:05.113Z,17.20
2023-01-30T02:01:35.107Z,11.30
2023-01-30T02:04:06.687Z,10.30
2023-01-30T02:06:37.854Z,9.50
2023-01-30T02:09:11.095Z,9.40
2023-01-30T02:11:56.702Z,9.30
2023-01-30T02:14:25.975Z,9.90
2023-01-30T02:16:55.085Z,11.00
2023-01-30T02:19:38.017Z,11.20
2023-01-30T02:22:23.560Z,12.20
2023-01-30T02:25:20.444Z,11.10
2023-01-30T02:27:58.099Z,10.70
2023-01-30T02:30:54.616Z,9.50
2023-01-30T02:33:55.421Z,9.50
2023-01-30T02:37:04.842Z,9.80
2023-01-30T02:39:46.504Z,9.80
2023-01-30T02:42:48.888Z,9.80
2023-01-30T02:45:36.416Z,9.40
2023-01-30T02:48:08.014Z,9.40
2023-01-30T02:51:03.817Z,9.30
2023-01-30T02:53:37.282Z,10.30
2023-01-30T02:56:07.579Z,9.90
2023-01-30T02:58:43.194Z,9.20
2023-01-30T03:01:43.024Z,9.20
2023-01-30T03:04:39.623Z,8.90
2023-01-30T03:07:19.325Z,9.80
2023-01-30T03:10:18.710Z,9.90
2023-01-30T03:13:10.939Z,8.80
2023-01-30T03:15:51.490Z,8.10
2023-01-30T03:18:22.118Z,9.60
2023-01-30T03:20:51.998Z,9.10
2023-01-30T03:23:21.195Z,10.10
2023-01-30T03:25:50.261Z,9.70
2023-01-30T03:28:22.106Z,8.80
2023-01-30T03:30:50.960Z,9.60
2023-01-30T03:33:20.339Z,9.80
2023-01-30T03:35:51.009Z,9.60
2023-01-30T03:38:20.465Z,9.00
2023-01-30T03:40:49.347Z,8.80
2023-01-30T03:43:18.509Z,8.80
2023-01-30T03:45:47.103Z,9.00
2023-01-30T03:48:16.934Z,9.60
2023-01-30T03:50:45.869Z,9.50
2023-01-30T03:53:14.762Z,8.90
2023-01-30T03:55:45.926Z,8.20
2023-01-30T03:58:14.774Z,8.80
2023-01-30T04:00:43.826Z,10.00
2023-01-30T04:03:12.855Z,9.40
2023-01-30T04:05:43.492Z,8.90
2023-01-30T04:08:12.361Z,8.80
2023-01-30T04:10:40.983Z,8.80
2023-01-30T04:13:09.739Z,9.30
2023-01-30T04:15:38.789Z,9.60
2023-01-30T04:18:07.513Z,8.70
2023-01-30T04:20:37.131Z,8.60
2023-01-30T04:23:05.784Z,8.90
2023-01-30T04:25:34.629Z,9.00
2023-01-30T04:28:03.343Z,9.50
2023-01-30T04:30:32.012Z,8.70
2023-01-30T04:33:00.728Z,8.20
2023-01-30T04:35:29.252Z,8.80
2023-01-30T04:37:58.210Z,8.80
2023-01-30T04:40:27.141Z,9.00
2023-01-30T04:42:55.667Z,8.20
2023-01-30T04:45:24.392Z,7.60
2023-01-30T04:47:52.906Z,8.10
2023-01-30T04:50:21.572Z,8.80
2023-01-30T04:52:50.156Z,8.80
2023-01-30T04:55:19.522Z,7.80
2023-01-30T04:57:48.411Z,7.80
2023-01-30T05:00:17.355Z,7.60
2023-01-30T05:02:46.054Z,8.10
2023-01-30T05:05:15.254Z,8.90
2023-01-30T05:07:44.185Z,8.70
2023-01-30T05:10:13.861Z,8.70
2023-01-30T05:12:42.635Z,9.40
2023-01-30T05:15:13.038Z,8.60
2023-01-30T05:17:44.435Z,9.30
2023-01-30T05:20:15.027Z,8.70
2023-01-30T05:22:44.256Z,11.30
2023-01-30T05:25:13.341Z,7.80
2023-01-30T05:27:42.278Z,12.50
2023-01-30T05:30:11.633Z,9.00
2023-01-30T05:32:40.502Z,9.20
2023-01-30T05:35:09.541Z,8.30
2023-01-30T05:37:38.801Z,7.80
2023-01-30T05:40:09.582Z,8.10
2023-01-30T05:42:38.547Z,8.80
2023-01-30T05:45:07.837Z,8.80
2023-01-30T05:47:36.560Z,8.70
2023-01-30T05:50:05.727Z,10.60
2023-01-30T05:52:34.566Z,7.70
2023-01-30T05:55:03.753Z,8.90
2023-01-30T05:57:32.440Z,8.70
2023-01-30T06:00:01.509Z,9.00
2023-01-30T06:02:31.903Z,8.30
2023-01-30T06:05:01.145Z,8.10
2023-01-30T06:07:30.095Z,8.30
2023-01-30T06:09:59.310Z,8.90
2023-01-30T06:12:28.499Z,8.00
2023-01-30T06:14:57.636Z,7.90
2023-01-30T06:17:29.078Z,7.20
2023-01-30T06:19:59.016Z,10.60
2023-01-30T06:22:28.161Z,10.60
2023-01-30T06:24:57.899Z,12.00
2023-01-30T06:27:27.002Z,12.80
2023-01-30T06:29:56.013Z,12.10
2023-01-30T06:32:25.339Z,11.40
2023-01-30T06:34:54.605Z,13.00
2023-01-30T06:37:23.668Z,13.60
2023-01-30T06:39:52.702Z,10.20
2023-01-30T06:42:21.897Z,9.50
2023-01-30T06:44:50.799Z,11.10
2023-01-30T06:47:19.764Z,11.10
2023-01-30T06:49:49.459Z,12.50
2023-01-30T06:52:18.328Z,12.40
2023-01-30T06:54:46.831Z,13.00
2023-01-30T06:57:15.802Z,12.60
2023-01-30T06:59:44.475Z,16.50
2023-01-30T07:02:13.854Z,11.80
2023-01-30T07:04:42.711Z,8.90
2023-01-30T07:07:11.900Z,9.10
2023-01-30T07:09:40.682Z,8.70
2023-01-30T07:12:09.403Z,10.10
2023-01-30T07:14:38.358Z,8.80
2023-01-30T07:17:07.921Z,9.90
2023-01-30T07:19:36.907Z,12.40
2023-01-30T07:22:05.725Z,9.50
2023-01-30T07:24:34.651Z,12.80
2023-01-30T07:27:03.667Z,9.80
2023-01-30T07:29:32.383Z,10.20
2023-01-30T07:32:01.275Z,14.60
2023-01-30T07:34:30.354Z,29.10
2023-01-30T07:36:59.391Z,24.00
2023-01-30T07:39:28.334Z,34.80
2023-01-30T07:41:57.056Z,62.90
2023-01-30T07:44:26.472Z,34.60
2023-01-30T07:46:55.756Z,13.40
2023-01-30T07:49:24.808Z,41.60
2023-01-30T07:51:54.265Z,85.10
2023-01-30T07:54:23.645Z,87.30
2023-01-30T07:56:53.143Z,47.80
2023-01-30T07:59:21.885Z,48.40
2023-01-30T08:01:50.917Z,48.30
2023-01-30T08:04:19.954Z,41.60
2023-01-30T08:06:49.277Z,38.00
2023-01-30T08:09:18.616Z,37.30
2023-01-30T08:11:48.039Z,32.60
2023-01-30T08:14:17.041Z,32.40
2023-01-30T08:16:46.546Z,32.30
2023-01-30T08:19:15.484Z,32.60
2023-01-30T08:21:44.516Z,36.90
2023-01-30T08:24:14.043Z,28.60
2023-01-30T08:26:43.478Z,26.20
2023-01-30T08:29:12.767Z,23.20
2023-01-30T08:31:43.102Z,15.10
2023-01-30T08:34:12.076Z,14.80
2023-01-30T08:36:40.999Z,14.20
2023-01-30T08:39:11.785Z,12.50
2023-01-30T08:41:43.696Z,10.80
2023-01-30T08:44:13.298Z,9.80
2023-01-30T08:46:42.657Z,9.60
2023-01-30T08:49:11.852Z,10.60
2023-01-30T08:51:41.082Z,11.10
2023-01-30T08:54:10.516Z,10.40
2023-01-30T08:56:39.765Z,10.50
2023-01-30T08:59:10.244Z,10.10
2023-01-30T09:01:39.376Z,9.90
2023-01-30T09:04:08.261Z,10.00
2023-01-30T09:06:37.360Z,9.40
2023-01-30T09:09:06.550Z,10.30
2023-01-30T09:11:36.079Z,9.60
2023-01-30T09:14:05.346Z,9.70
2023-01-30T09:16:34.538Z,10.00
2023-01-30T09:19:04.228Z,9.30
2023-01-30T09:21:33.845Z,9.60
2023-01-30T09:24:03.564Z,9.30
2023-01-30T09:26:33.079Z,9.40
2023-01-30T09:29:02.362Z,9.30
2023-01-30T09:31:32.175Z,9.50
2023-01-30T09:34:01.514Z,8.90
2023-01-30T09:36:30.491Z,8.90
2023-01-30T09:38:59.684Z,8.70
2023-01-30T09:41:59.272Z,8.90
2023-01-30T09:45:05.420Z,8.60
2023-01-30T09:48:10.620Z,8.40
2023-01-30T09:50:49.005Z,8.30
2023-01-30T09:53:37.873Z,7.70
2023-01-30T09:56:08.021Z,8.50
2023-01-30T09:59:18.338Z,8.20
2023-01-30T10:02:00.308Z,8.80
2023-01-30T10:04:36.178Z,8.90
2023-01-30T10:07:32.680Z,8.50
2023-01-30T10:10:21.880Z,8.70
2023-01-30T10:13:22.849Z,9.00
2023-01-30T10:16:24.141Z,10.10
2023-01-30T10:19:50.553Z,8.80
2023-01-30T10:22:31.767Z,9.20
2023-01-30T10:25:29.059Z,9.00
2023-01-30T10:28:03.010Z,8.10
2023-01-30T10:30:35.639Z,8.60
2023-01-30T10:33:07.977Z,8.40
2023-01-30T10:35:43.179Z,8.50
2023-01-30T10:38:26.864Z,7.50
2023-01-30T10:41:22.390Z,8.40
2023-01-30T10:44:14.234Z,7.70
2023-01-30T10:47:04.807Z,9.20
2023-01-30T10:49:47.964Z,8.40
2023-01-30T10:52:42.414Z,8.40
2023-01-30T10:55:31.497Z,7.50
2023-01-30T10:58:18.223Z,8.10
2023-01-30T11:01:21.122Z,8.10
2023-01-30T11:04:03.929Z,7.40
2023-01-30T11:06:36.200Z,9.30
2023-01-30T11:09:05.799Z,8.40
2023-01-30T11:11:49.504Z,7.00
2023-01-30T11:14:18.830Z,7.30
2023-01-30T11:16:52.126Z,7.90
2023-01-30T11:19:34.413Z,7.10
2023-01-30T11:22:07.736Z,8.10
2023-01-30T11:24:43.484Z,7.90
2023-01-30T11:27:32.266Z,8.10
2023-01-30T11:30:20.567Z,7.90
2023-01-30T11:32:51.276Z,7.70
2023-01-30T11:35:25.642Z,8.50
2023-01-30T11:37:55.424Z,7.60
2023-01-30T11:40:28.373Z,7.80
2023-01-30T11:43:06.373Z,7.90
2023-01-30T11:45:38.884Z,8.10
2023-01-30T11:48:33.797Z,8.00
2023-01-30T11:51:14.963Z,8.30
2023-01-30T11:53:50.475Z,7.30
2023-01-30T11:56:33.375Z,7.20
2023-01-30T11:59:08.518Z,6.90
2023-01-30T12:01:38.152Z,7.00
2023-01-30T12:04:12.850Z,6.90
2023-01-30T12:06:44.377Z,7.80
2023-01-30T12:09:37.361Z,7.00
2023-01-30T12:12:32.457Z,7.00
2023-01-30T12:15:12.461Z,7.30
2023-01-30T12:18:00.451Z,6.50
2023-01-30T12:20:49.112Z,6.70
2023-01-30T12:23:21.801Z,7.30
2023-01-30T12:26:12.083Z,6.60
2023-01-30T12:29:00.234Z,7.20
2023-01-30T12:31:55.976Z,6.90
2023-01-30T12:34:27.581Z,7.30
2023-01-30T12:37:24.668Z,6.60
2023-01-30T12:40:17.055Z,7.50
2023-01-30T12:43:14.479Z,6.80
2023-01-30T12:46:07.960Z,7.30
2023-01-30T12:49:07.702Z,7.70
2023-01-30T12:52:17.347Z,7.20
2023-01-30T12:54:55.673Z,7.20
2023-01-30T12:57:34.767Z,7.40
2023-01-30T13:00:34.660Z,7.00
2023-01-30T13:03:26.667Z,8.10
2023-01-30T13:06:09.792Z,7.30
2023-01-30T13:08:52.954Z,7.70
2023-01-30T13:11:45.875Z,7.40
2023-01-30T13:14:29.270Z,7.00
2023-01-30T13:17:04.971Z,6.40
2023-01-30T13:19:46.960Z,7.00
2023-01-30T13:22:55.958Z,7.10
2023-01-30T13:25:30.897Z,6.30
2023-01-30T13:28:04.415Z,6.20
2023-01-30T13:30:37.361Z,6.60
2023-01-30T13:33:21.536Z,6.40
2023-01-30T13:36:16.759Z,6.40
2023-01-30T13:38:57.941Z,6.30
2023-01-30T13:41:32.730Z,6.70
2023-01-30T13:44:08.010Z,6.50
2023-01-30T13:46:39.945Z,5.60
2023-01-30T13:49:29.501Z,6.20
2023-01-30T13:52:10.092Z,6.70
2023-01-30T13:55:20.723Z,6.60
2023-01-30T13:58:19.773Z,6.90
2023-01-30T14:00:57.798Z,6.80
2023-01-30T14:03:33.174Z,6.50
2023-01-30T14:06:07.693Z,6.90
2023-01-30T14:08:46.842Z,7.40
2023-01-30T14:11:35.931Z,7.30
2023-01-30T14:14:31.185Z,7.50
2023-01-30T14:17:17.777Z,7.80
2023-01-30T14:20:00.159Z,8.10
2023-01-30T14:22:47.723Z,8.20
2023-01-30T14:25:26.235Z,8.20
2023-01-30T14:27:56.588Z,8.30
2023-01-30T14:30:31.429Z,8.70
2023-01-30T14:33:02.476Z,7.90
2023-01-30T14:35:33.603Z,7.60
2023-01-30T14:38:16.125Z,8.70
2023-01-30T14:40:50.349Z,9.50
2023-01-30T14:43:42.709Z,7.30
2023-01-30T14:46:19.646Z,7.30
2023-01-30T14:49:01.641Z,7.40
2023-01-30T14:51:40.156Z,6.90
2023-01-30T14:54:14.278Z,7.30
2023-01-30T14:57:03.570Z,7.10
2023-01-30T14:59:35.927Z,7.30
2023-01-30T15:02:14.921Z,7.70
2023-01-30T15:05:06.100Z,7.70
2023-01-30T15:08:00.452Z,10.80
2023-01-30T15:10:42.273Z,10.70
2023-01-30T15:13:16.840Z,11.20
2023-01-30T15:15:52.405Z,13.00
2023-01-30T15:18:46.085Z,12.10
2023-01-30T15:21:32.383Z,10.30
2023-01-30T15:24:42.329Z,9.30
2023-01-30T15:27:12.185Z,7.80
2023-01-30T15:29:56.679Z,7.10
2023-01-30T15:32:27.928Z,7.30
2023-01-30T15:35:17.058Z,7.30
2023-01-30T15:37:46.879Z,7.20
2023-01-30T15:40:16.656Z,7.80
2023-01-30T15:42:51.534Z,7.10
2023-01-30T15:45:52.687Z,7.80
2023-01-30T15:48:39.966Z,8.00
2023-01-30T15:51:15.045Z,7.40
2023-01-30T15:53:47.351Z,9.30
2023-01-30T15:56:24.561Z,7.50
2023-01-30T15:58:54.874Z,8.90
2023-01-30T16:01:24.569Z,8.70
2023-01-30T16:03:56.504Z,9.50
2023-01-30T16:06:34.706Z,8.90
2023-01-30T16:09:04.358Z,9.80
2023-01-30T16:11:41.983Z,19.40
2023-01-30T16:14:17.620Z,23.80
2023-01-30T16:16:53.113Z,14.90
2023-01-30T16:19:27.103Z,8.80
2023-01-30T16:22:02.879Z,7.20
2023-01-30T16:24:34.690Z,7.00
2023-01-30T16:27:07.980Z,17.00
2023-01-30T16:29:51.938Z,22.20
2023-01-30T16:32:33.807Z,16.80
2023-01-30T16:35:34.484Z,16.40
2023-01-30T16:38:04.705Z,14.40
2023-01-30T16:40:46.637Z,16.80
2023-01-30T16:43:25.658Z,15.60
2023-01-30T16:45:55.298Z,18.70
2023-01-30T16:48:34.308Z,20.30
2023-01-30T16:51:04.002Z,39.30
2023-01-30T16:53:34.334Z,19.50
2023-01-30T16:56:04.664Z,17.10
2023-01-30T16:58:36.405Z,24.50
2023-01-30T17:01:08.847Z,17.20
2023-01-30T17:04:01.264Z,25.30
2023-01-30T17:06:40.315Z,22.50
2023-01-30T17:09:46.696Z,36.40
2023-01-30T17:12:28.933Z,28.20
2023-01-30T17:15:29.059Z,21.20
2023-01-30T17:17:58.458Z,10.10
2023-01-30T17:20:41.100Z,7.70
2023-01-30T17:23:16.029Z,10.00
2023-01-30T17:25:47.992Z,11.40
2023-01-30T17:28:21.747Z,12.70
2023-01-30T17:30:51.435Z,23.60
2023-01-30T17:33:21.280Z,15.10
2023-01-30T17:35:50.627Z,15.70
2023-01-30T17:38:19.972Z,11.90
2023-01-30T17:40:50.627Z,14.00
2023-01-30T17:43:20.306Z,10.60
2023-01-30T17:45:51.197Z,11.40
2023-01-30T17:48:20.659Z,12.40
2023-01-30T17:50:49.642Z,14.50
2023-01-30T17:53:18.780Z,13.50
2023-01-30T17:55:48.767Z,14.50
2023-01-30T17:58:18.538Z,18.40
2023-01-30T18:00:48.111Z,15.70
2023-01-30T18:03:17.949Z,14.10
2023-01-30T18:05:47.849Z,16.50
2023-01-30T18:08:16.871Z,17.30
2023-01-30T18:10:46.423Z,16.80
2023-01-30T18:13:15.482Z,16.80
2023-01-30T18:15:44.641Z,19.50
2023-01-30T18:18:20.857Z,15.90
2023-01-30T18:20:49.766Z,12.10
2023-01-30T18:23:20.445Z,11.00
2023-01-30T18:25:50.920Z,13.70
2023-01-30T18:28:21.024Z,15.50
2023-01-30T18:30:50.711Z,11.10
2023-01-30T18:33:20.208Z,14.90
2023-01-30T18:35:49.819Z,14.80
2023-01-30T18:38:19.783Z,17.20
2023-01-30T18:40:50.038Z,27.00
2023-01-30T18:43:18.880Z,19.00
2023-01-30T18:45:48.791Z,22.70
2023-01-30T18:48:18.011Z,30.70
2023-01-30T18:50:47.350Z,16.50
2023-01-30T18:53:17.499Z,12.60
2023-01-30T18:55:51.181Z,15.60
2023-01-30T18:58:20.429Z,8.50
2023-01-30T19:00:49.871Z,9.00
2023-01-30T19:03:18.968Z,11.90
2023-01-30T19:05:47.886Z,12.60
2023-01-30T19:08:17.292Z,7.90
2023-01-30T19:10:46.117Z,7.80
2023-01-30T19:13:33.896Z,13.00
2023-01-30T19:16:04.636Z,12.70
2023-01-30T19:18:33.590Z,12.20
2023-01-30T19:21:03.951Z,22.60
2023-01-30T19:23:34.432Z,21.20
2023-01-30T19:26:04.144Z,14.50
2023-01-30T19:28:33.579Z,13.10
2023-01-30T19:31:07.988Z,27.00
2023-01-30T19:33:37.597Z,20.20
2023-01-30T19:36:20.318Z,19.10
2023-01-30T19:38:50.928Z,20.70
2023-01-30T19:41:31.672Z,21.70
2023-01-30T19:44:03.604Z,17.90
2023-01-30T19:46:34.241Z,16.80
2023-01-30T19:49:05.989Z,11.20
2023-01-30T19:51:36.070Z,10.60
2023-01-30T19:54:08.947Z,13.20
2023-01-30T19:56:40.501Z,17.90
2023-01-30T19:59:12.114Z,21.20
2023-01-30T20:01:41.412Z,15.90
2023-01-30T20:04:10.226Z,22.80
2023-01-30T20:06:45.065Z,21.90
2023-01-30T20:09:16.866Z,15.10
2023-01-30T20:11:46.186Z,10.70
2023-01-30T20:14:15.441Z,10.40
2023-01-30T20:16:45.726Z,14.40
2023-01-30T20:19:17.212Z,30.00
2023-01-30T20:21:46.757Z,15.80
2023-01-30T20:24:17.140Z,13.30
2023-01-30T20:26:48.556Z,18.20
2023-01-30T20:29:18.925Z,16.60
2023-01-30T20:31:48.734Z,13.30
2023-01-30T20:34:19.208Z,8.90
2023-01-30T20:36:48.898Z,19.80
2023-01-30T20:39:21.039Z,21.10
2023-01-30T20:41:50.721Z,25.50
2023-01-30T20:44:21.711Z,43.70
2023-01-30T20:46:51.516Z,23.10
2023-01-30T20:49:22.127Z,12.30
2023-01-30T20:51:53.603Z,13.80
2023-01-30T20:54:24.162Z,14.90
2023-01-30T20:56:54.798Z,15.90
2023-01-30T20:59:25.225Z,12.80
2023-01-30T21:01:56.024Z,12.30
2023-01-30T21:04:26.085Z,11.40
2023-01-30T21:06:55.263Z,10.80
2023-01-30T21:09:25.676Z,11.60
2023-01-30T21:11:56.108Z,12.30
2023-01-30T21:14:26.700Z,9.40
2023-01-30T21:16:56.548Z,9.10
2023-01-30T21:19:25.558Z,8.20
2023-01-30T21:21:56.648Z,7.80
2023-01-30T21:24:30.127Z,8.50
2023-01-30T21:27:00.454Z,9.70
2023-01-30T21:29:30.249Z,13.40
2023-01-30T21:32:00.120Z,13.50
2023-01-30T21:34:29.596Z,17.50
2023-01-30T21:37:17.980Z,16.60
2023-01-30T21:40:06.069Z,12.60
2023-01-30T21:42:53.998Z,9.10
2023-01-30T21:45:23.341Z,12.90
2023-01-30T21:47:54.774Z,14.10
2023-01-30T21:50:24.289Z,12.50
2023-01-30T21:52:53.464Z,17.80
2023-01-30T21:55:22.288Z,19.90
2023-01-30T21:57:53.036Z,17.70
2023-01-30T22:00:22.776Z,21.00
2023-01-30T22:02:52.094Z,25.00
2023-01-30T22:05:21.199Z,16.80
2023-01-30T22:07:50.231Z,16.50
2023-01-30T22:10:19.423Z,16.70
2023-01-30T22:12:48.581Z,13.50
2023-01-30T22:15:18.097Z,11.20
2023-01-30T22:17:48.367Z,20.90
2023-01-30T22:20:18.090Z,17.10
2023-01-30T22:22:48.022Z,15.50
2023-01-30T22:25:16.906Z,23.60
2023-01-30T22:27:46.051Z,12.40
2023-01-30T22:30:15.327Z,11.40
2023-01-30T22:32:45.354Z,16.50
2023-01-30T22:35:14.683Z,18.40
2023-01-30T22:37:44.374Z,15.80
2023-01-30T22:40:14.046Z,13.10
2023-01-30T22:42:48.050Z,13.90
2023-01-30T22:45:17.232Z,11.20
2023-01-30T22:47:46.278Z,13.00
2023-01-30T22:50:15.256Z,12.80
2023-01-30T22:52:44.334Z,12.20
2023-01-30T22:55:13.505Z,12.40
2023-01-30T22:57:42.616Z,9.40
2023-01-30T23:00:12.020Z,10.80
2023-01-30T23:02:41.117Z,9.90
2023-01-30T23:05:10.314Z,10.10
2023-01-30T23:07:39.262Z,14.90
2023-01-30T23:10:08.714Z,9.40
2023-01-30T23:12:56.240Z,14.70
2023-01-30T23:15:24.999Z,11.70
2023-01-30T23:18:12.424Z,15.80
2023-01-30T23:20:41.168Z,15.30
2023-01-30T23:23:09.826Z,16.40
2023-01-30T23:25:42.889Z,14.50
2023-01-30T23:28:11.611Z,13.20
2023-01-30T23:30:40.622Z,10.20
2023-01-30T23:33:09.607Z,11.90
2023-01-30T23:35:38.936Z,11.60
2023-01-30T23:38:19.660Z,10.80
2023-01-30T23:40:49.909Z,11.50
2023-01-30T23:43:20.197Z,10.00
2023-01-30T23:45:49.307Z,10.00
2023-01-30T23:48:20.179Z,9.60
2023-01-30T23:50:50.083Z,10.10
2023-01-30T23:53:19.426Z,10.10
2023-01-30T23:55:52.679Z,10.50
2023-01-30T23:58:22.346Z,9.50
